sensor_id;sensor_type;location;lat;lon;timestamp;pressure;altitude;pressure_sealevel;temperature
76583;BMP280;65462;52.148;7.940;2023-03-12T00:01:41;100396.84;;;2.22
76583;BMP280;65462;52.148;7.940;2023-03-12T00:04:06;100408.81;;;2.23
76583;BMP280;65462;52.148;7.940;2023-03-12T00:06:31;100408.56;;;2.24
76583;BMP280;65462;52.148;7.940;2023-03-12T00:08:57;100397.63;;;2.22
76583;BMP280;65462;52.148;7.940;2023-03-12T00:11:23;100403.59;;;2.17
76583;BMP280;65462;52.148;7.940;2023-03-12T00:13:54;100400.75;;;2.19
76583;BMP280;65462;52.148;7.940;2023-03-12T00:16:20;100399.19;;;2.18
76583;BMP280;65462;52.148;7.940;2023-03-12T00:18:49;100398.38;;;2.17
76583;BMP280;65462;52.148;7.940;2023-03-12T00:21:16;100396.31;;;2.09
76583;BMP280;65462;52.148;7.940;2023-03-12T00:23:41;100395.78;;;2.07
76583;BMP280;65462;52.148;7.940;2023-03-12T00:26:09;100412.75;;;2.10
76583;BMP280;65462;52.148;7.940;2023-03-12T00:28:35;100401.00;;;2.12
76583;BMP280;65462;52.148;7.940;2023-03-12T00:31:01;100399.19;;;2.08
76583;BMP280;65462;52.148;7.940;2023-03-12T00:33:27;100398.94;;;2.09
76583;BMP280;65462;52.148;7.940;2023-03-12T00:35:55;100395.53;;;2.09
76583;BMP280;65462;52.148;7.940;2023-03-12T00:38:21;100395.00;;;2.07
76583;BMP280;65462;52.148;7.940;2023-03-12T00:40:46;100406.22;;;2.02
76583;BMP280;65462;52.148;7.940;2023-03-12T00:43:12;100391.91;;;2.00
76583;BMP280;65462;52.148;7.940;2023-03-12T00:45:37;100386.44;;;1.96
76583;BMP280;65462;52.148;7.940;2023-03-12T00:48:02;100376.53;;;1.93
76583;BMP280;65462;52.148;7.940;2023-03-12T00:50:28;100378.09;;;1.94
76583;BMP280;65462;52.148;7.940;2023-03-12T00:52:53;100366.09;;;1.98
76583;BMP280;65462;52.148;7.940;2023-03-12T00:55:18;100371.59;;;1.97
76583;BMP280;65462;52.148;7.940;2023-03-12T00:57:44;100369.75;;;1.97
76583;BMP280;65462;52.148;7.940;2023-03-12T01:00:10;100371.31;;;1.93
76583;BMP280;65462;52.148;7.940;2023-03-12T01:02:37;100364.31;;;1.94
76583;BMP280;65462;52.148;7.940;2023-03-12T01:05:05;100359.88;;;1.89
76583;BMP280;65462;52.148;7.940;2023-03-12T01:07:31;100353.63;;;1.90
76583;BMP280;65462;52.148;7.940;2023-03-12T01:09:56;100357.50;;;1.88
76583;BMP280;65462;52.148;7.940;2023-03-12T01:12:22;100358.31;;;1.93
76583;BMP280;65462;52.148;7.940;2023-03-12T01:14:47;100354.66;;;1.94
76583;BMP280;65462;52.148;7.940;2023-03-12T01:17:13;100354.66;;;1.94
76583;BMP280;65462;52.148;7.940;2023-03-12T01:19:38;100347.38;;;1.86
76583;BMP280;65462;52.148;7.940;2023-03-12T01:22:03;100361.19;;;1.82
76583;BMP280;65462;52.148;7.940;2023-03-12T01:24:29;100351.06;;;1.80
76583;BMP280;65462;52.148;7.940;2023-03-12T01:26:54;100343.75;;;1.82
76583;BMP280;65462;52.148;7.940;2023-03-12T01:29:20;100347.41;;;1.76
76583;BMP280;65462;52.148;7.940;2023-03-12T01:31:46;100340.38;;;1.77
76583;BMP280;65462;52.148;7.940;2023-03-12T01:34:11;100349.75;;;1.73
76583;BMP280;65462;52.148;7.940;2023-03-12T01:36:37;100341.41;;;1.71
76583;BMP280;65462;52.148;7.940;2023-03-12T01:39:02;100337.00;;;1.71
76583;BMP280;65462;52.148;7.940;2023-03-12T01:41:29;100346.88;;;1.64
76583;BMP280;65462;52.148;7.940;2023-03-12T01:43:57;100348.19;;;1.67
76583;BMP280;65462;52.148;7.940;2023-03-12T01:46:37;100346.34;;;1.62
76583;BMP280;65462;52.148;7.940;2023-03-12T01:51:58;100341.69;;;1.64
76583;BMP280;65462;52.148;7.940;2023-03-12T01:54:34;100338.28;;;1.63
76583;BMP280;65462;52.148;7.940;2023-03-12T01:57:02;100342.19;;;1.61
76583;BMP280;65462;52.148;7.940;2023-03-12T01:59:49;100332.81;;;1.60
76583;BMP280;65462;52.148;7.940;2023-03-12T02:02:15;100336.72;;;1.62
76583;BMP280;65462;52.148;7.940;2023-03-12T02:04:44;100341.13;;;1.62
76583;BMP280;65462;52.148;7.940;2023-03-12T02:07:12;100335.41;;;1.65
76583;BMP280;65462;52.148;7.940;2023-03-12T02:09:42;100331.78;;;1.66
76583;BMP280;65462;52.148;7.940;2023-03-12T02:12:10;100329.69;;;1.63
76583;BMP280;65462;52.148;7.940;2023-03-12T02:14:36;100320.06;;;1.63
76583;BMP280;65462;52.148;7.940;2023-03-12T02:17:02;100322.66;;;1.58
76583;BMP280;65462;52.148;7.940;2023-03-12T02:19:42;100315.63;;;1.59
76583;BMP280;65462;52.148;7.940;2023-03-12T02:22:10;100319.28;;;1.58
76583;BMP280;65462;52.148;7.940;2023-03-12T02:27:05;100316.94;;;1.56
76583;BMP280;65462;52.148;7.940;2023-03-12T02:29:33;100313.56;;;1.51
76583;BMP280;65462;52.148;7.940;2023-03-12T02:32:01;100316.94;;;1.51
76583;BMP280;65462;52.148;7.940;2023-03-12T02:34:28;100312.00;;;1.55
76583;BMP280;65462;52.148;7.940;2023-03-12T02:36:53;100315.63;;;1.59
76583;BMP280;65462;52.148;7.940;2023-03-12T02:39:19;100313.03;;;1.59
76583;BMP280;65462;52.148;7.940;2023-03-12T02:41:49;100305.75;;;1.56
76583;BMP280;65462;52.148;7.940;2023-03-12T02:44:21;100303.66;;;1.53
76583;BMP280;65462;52.148;7.940;2023-03-12T02:46:49;100307.31;;;1.57
76583;BMP280;65462;52.148;7.940;2023-03-12T02:49:16;100299.00;;;1.55
76583;BMP280;65462;52.148;7.940;2023-03-12T02:51:43;100309.66;;;1.53
76583;BMP280;65462;52.148;7.940;2023-03-12T02:54:09;100295.59;;;1.54
76583;BMP280;65462;52.148;7.940;2023-03-12T02:56:36;100290.66;;;1.53
76583;BMP280;65462;52.148;7.940;2023-03-12T02:59:02;100289.34;;;1.55
76583;BMP280;65462;52.148;7.940;2023-03-12T03:01:27;100288.31;;;1.51
76583;BMP280;65462;52.148;7.940;2023-03-12T03:03:53;100284.66;;;1.47
76583;BMP280;65462;52.148;7.940;2023-03-12T03:06:19;100277.91;;;1.46
76583;BMP280;65462;52.148;7.940;2023-03-12T03:08:44;100283.91;;;1.42
76583;BMP280;65462;52.148;7.940;2023-03-12T03:11:10;100286.47;;;1.37
76583;BMP280;65462;52.148;7.940;2023-03-12T03:13:35;100286.53;;;1.32
76583;BMP280;65462;52.148;7.940;2023-03-12T03:16:00;100276.84;;;1.37
76583;BMP280;65462;52.148;7.940;2023-03-12T03:18:27;100284.41;;;1.39
76583;BMP280;65462;52.148;7.940;2023-03-12T03:21:01;100285.19;;;1.34
76583;BMP280;65462;52.148;7.940;2023-03-12T03:23:26;100281.81;;;1.39
76583;BMP280;65462;52.148;7.940;2023-03-12T03:25:52;100278.94;;;1.35
76583;BMP280;65462;52.148;7.940;2023-03-12T03:28:19;100278.16;;;1.35
76583;BMP280;65462;52.148;7.940;2023-03-12T03:30:45;100274.03;;;1.29
76583;BMP280;65462;52.148;7.940;2023-03-12T03:33:10;100271.94;;;1.31
76583;BMP280;65462;52.148;7.940;2023-03-12T03:35:36;100257.88;;;1.27
76583;BMP280;65462;52.148;7.940;2023-03-12T03:38:01;100264.16;;;1.26
76583;BMP280;65462;52.148;7.940;2023-03-12T03:40:26;100253.72;;;1.31
76583;BMP280;65462;52.148;7.940;2023-03-12T03:42:52;100262.06;;;1.28
76583;BMP280;65462;52.148;7.940;2023-03-12T03:45:17;100262.56;;;1.25
76583;BMP280;65462;52.148;7.940;2023-03-12T03:47:43;100261.78;;;1.24
76583;BMP280;65462;52.148;7.940;2023-03-12T03:50:09;100257.63;;;1.28
76583;BMP280;65462;52.148;7.940;2023-03-12T03:52:35;100259.72;;;1.31
76583;BMP280;65462;52.148;7.940;2023-03-12T03:55:00;100252.97;;;1.25
76583;BMP280;65462;52.148;7.940;2023-03-12T03:57:26;100255.56;;;1.25
76583;BMP280;65462;52.148;7.940;2023-03-12T03:59:51;100258.94;;;1.21
76583;BMP280;65462;52.148;7.940;2023-03-12T04:02:17;100251.66;;;1.18
76583;BMP280;65462;52.148;7.940;2023-03-12T04:04:42;100249.56;;;1.15
76583;BMP280;65462;52.148;7.940;2023-03-12T04:07:08;100245.94;;;1.16
76583;BMP280;65462;52.148;7.940;2023-03-12T04:09:33;100245.94;;;1.16
76583;BMP280;65462;52.148;7.940;2023-03-12T04:11:58;100237.06;;;1.17
76583;BMP280;65462;52.148;7.940;2023-03-12T04:14:24;100236.28;;;1.11
76583;BMP280;65462;52.148;7.940;2023-03-12T04:16:49;100237.09;;;1.12
76583;BMP280;65462;52.148;7.940;2023-03-12T04:19:14;100225.38;;;1.09
76583;BMP280;65462;52.148;7.940;2023-03-12T04:21:39;100228.75;;;1.15
76583;BMP280;65462;52.148;7.940;2023-03-12T04:24:07;100229.53;;;1.10
76583;BMP280;65462;52.148;7.940;2023-03-12T04:26:36;100230.06;;;1.12
76583;BMP280;65462;52.148;7.940;2023-03-12T04:29:01;100238.63;;;1.18
76583;BMP280;65462;52.148;7.940;2023-03-12T04:31:26;100221.22;;;1.13
76583;BMP280;65462;52.148;7.940;2023-03-12T04:33:51;100223.03;;;1.13
76583;BMP280;65462;52.148;7.940;2023-03-12T04:36:17;100219.41;;;1.08
76583;BMP280;65462;52.148;7.940;2023-03-12T04:38:42;100219.91;;;1.11
76583;BMP280;65462;52.148;7.940;2023-03-12T04:41:10;100219.41;;;1.08
76583;BMP280;65462;52.148;7.940;2023-03-12T04:43:36;100218.63;;;1.13
76583;BMP280;65462;52.148;7.940;2023-03-12T04:46:01;100204.31;;;1.11
76583;BMP280;65462;52.148;7.940;2023-03-12T04:48:27;100199.63;;;1.07
76583;BMP280;65462;52.148;7.940;2023-03-12T04:50:53;100196.75;;;1.04
76583;BMP280;65462;52.148;7.940;2023-03-12T04:53:19;100195.22;;;1.03
76583;BMP280;65462;52.148;7.940;2023-03-12T04:55:45;100195.22;;;1.03
76583;BMP280;65462;52.148;7.940;2023-03-12T04:58:10;100189.50;;;1.11
76583;BMP280;65462;52.148;7.940;2023-03-12T05:00:38;100200.91;;;1.10
76583;BMP280;65462;52.148;7.940;2023-03-12T05:03:03;100187.91;;;1.10
76583;BMP280;65462;52.148;7.940;2023-03-12T05:05:29;100192.59;;;0.98
76583;BMP280;65462;52.148;7.940;2023-03-12T05:07:54;100181.97;;;0.99
76583;BMP280;65462;52.148;7.940;2023-03-12T05:10:19;100182.75;;;1.00
76583;BMP280;65462;52.148;7.940;2023-03-12T05:12:44;100185.56;;;1.03
76583;BMP280;65462;52.148;7.940;2023-03-12T05:15:10;100165.31;;;0.95
76583;BMP280;65462;52.148;7.940;2023-03-12T05:17:35;100161.69;;;0.96
76583;BMP280;65462;52.148;7.940;2023-03-12T05:20:00;100163.75;;;0.94
76583;BMP280;65462;52.148;7.940;2023-03-12T05:22:26;100158.03;;;0.97
76583;BMP280;65462;52.148;7.940;2023-03-12T05:24:51;100164.28;;;0.96
76583;BMP280;65462;52.148;7.940;2023-03-12T05:27:17;100155.97;;;0.99
76583;BMP280;65462;52.148;7.940;2023-03-12T05:29:42;100155.97;;;0.99
76583;BMP280;65462;52.148;7.940;2023-03-12T05:32:07;100144.25;;;0.87
76583;BMP280;65462;52.148;7.940;2023-03-12T05:34:33;100143.75;;;0.90
76583;BMP280;65462;52.148;7.940;2023-03-12T05:36:58;100139.31;;;0.90
76583;BMP280;65462;52.148;7.940;2023-03-12T05:39:24;100135.41;;;0.93
76583;BMP280;65462;52.148;7.940;2023-03-12T05:41:50;100130.72;;;0.95
76583;BMP280;65462;52.148;7.940;2023-03-12T05:44:18;100120.06;;;0.91
76583;BMP280;65462;52.148;7.940;2023-03-12T05:46:43;100129.69;;;0.91
76583;BMP280;65462;52.148;7.940;2023-03-12T05:49:09;100123.19;;;0.88
76583;BMP280;65462;52.148;7.940;2023-03-12T05:51:35;100119.56;;;0.94
76583;BMP280;65462;52.148;7.940;2023-03-12T05:54:00;100107.34;;;0.90
76583;BMP280;65462;52.148;7.940;2023-03-12T05:56:26;100096.19;;;0.89
76583;BMP280;65462;52.148;7.940;2023-03-12T05:58:51;100097.75;;;0.90
76583;BMP280;65462;52.148;7.940;2023-03-12T06:01:19;100110.19;;;0.88
76583;BMP280;65462;52.148;7.940;2023-03-12T06:03:45;100105.00;;;0.88
76583;BMP280;65462;52.148;7.940;2023-03-12T06:06:11;100115.94;;;0.90
76583;BMP280;65462;52.148;7.940;2023-03-12T06:08:37;100096.19;;;0.89
76583;BMP280;65462;52.148;7.940;2023-03-12T06:11:03;100093.03;;;0.97
76583;BMP280;65462;52.148;7.940;2023-03-12T06:13:28;100090.19;;;0.94
76583;BMP280;65462;52.148;7.940;2023-03-12T06:16:00;100090.72;;;0.96
76583;BMP280;65462;52.148;7.940;2023-03-12T06:18:27;100099.28;;;0.91
76583;BMP280;65462;52.148;7.940;2023-03-12T06:20:52;100091.22;;;0.93
76583;BMP280;65462;52.148;7.940;2023-03-12T06:23:17;100086.81;;;0.93
76583;BMP280;65462;52.148;7.940;2023-03-12T06:25:44;100091.22;;;0.93
76583;BMP280;65462;52.148;7.940;2023-03-12T06:28:09;100086.28;;;0.91
76583;BMP280;65462;52.148;7.940;2023-03-12T06:30:34;100085.50;;;0.96
76583;BMP280;65462;52.148;7.940;2023-03-12T06:32:59;100088.34;;;0.94
76583;BMP280;65462;52.148;7.940;2023-03-12T06:35:25;100085.50;;;1.01
76583;BMP280;65462;52.148;7.940;2023-03-12T06:37:50;100084.72;;;1.00
76583;BMP280;65462;52.148;7.940;2023-03-12T06:40:15;100077.19;;;0.99
76583;BMP280;65462;52.148;7.940;2023-03-12T06:42:41;100074.84;;;1.02
76583;BMP280;65462;52.148;7.940;2023-03-12T06:45:07;100069.63;;;1.07
76583;BMP280;65462;52.148;7.940;2023-03-12T06:47:33;100065.22;;;1.03
76583;BMP280;65462;52.148;7.940;2023-03-12T06:49:58;100070.69;;;1.06
76583;BMP280;65462;52.148;7.940;2023-03-12T06:52:24;100070.41;;;1.08
76583;BMP280;65462;52.148;7.940;2023-03-12T06:54:49;100069.63;;;1.07
76583;BMP280;65462;52.148;7.940;2023-03-12T06:57:14;100074.56;;;1.09
76583;BMP280;65462;52.148;7.940;2023-03-12T06:59:41;100074.56;;;1.09
76583;BMP280;65462;52.148;7.940;2023-03-12T07:02:11;100056.09;;;1.11
76583;BMP280;65462;52.148;7.940;2023-03-12T07:04:36;100057.63;;;1.17
76583;BMP280;65462;52.148;7.940;2023-03-12T07:07:01;100063.91;;;1.16
76583;BMP280;65462;52.148;7.940;2023-03-12T07:09:27;100056.63;;;1.13
76583;BMP280;65462;52.148;7.940;2023-03-12T07:11:52;100062.34;;;1.15
76583;BMP280;65462;52.148;7.940;2023-03-12T07:14:17;100070.66;;;1.17
76583;BMP280;65462;52.148;7.940;2023-03-12T07:16:44;100075.09;;;1.16
76583;BMP280;65462;52.148;7.940;2023-03-12T07:19:09;100067.00;;;1.18
76583;BMP280;65462;52.148;7.940;2023-03-12T07:21:34;100071.97;;;1.19
76583;BMP280;65462;52.148;7.940;2023-03-12T07:24:00;100059.72;;;1.15
76583;BMP280;65462;52.148;7.940;2023-03-12T07:26:30;100051.13;;;1.24
76583;BMP280;65462;52.148;7.940;2023-03-12T07:28:56;100042.81;;;1.22
76583;BMP280;65462;52.148;7.940;2023-03-12T07:31:21;100046.22;;;1.23
76583;BMP280;65462;52.148;7.940;2023-03-12T07:33:46;100039.69;;;1.20
76583;BMP280;65462;52.148;7.940;2023-03-12T07:36:11;100023.31;;;1.20
76583;BMP280;65462;52.148;7.940;2023-03-12T07:38:37;100041.25;;;1.21
76583;BMP280;65462;52.148;7.940;2023-03-12T07:41:02;100029.53;;;1.24
76583;BMP280;65462;52.148;7.940;2023-03-12T07:43:27;100033.19;;;1.23
76583;BMP280;65462;52.148;7.940;2023-03-12T07:45:53;100036.31;;;1.25
76583;BMP280;65462;52.148;7.940;2023-03-12T07:48:18;100036.56;;;1.23
76583;BMP280;65462;52.148;7.940;2023-03-12T07:50:44;100027.97;;;1.28
76583;BMP280;65462;52.148;7.940;2023-03-12T07:53:09;100036.03;;;1.31
76583;BMP280;65462;52.148;7.940;2023-03-12T07:55:34;100055.81;;;1.27
76583;BMP280;65462;52.148;7.940;2023-03-12T07:58:00;100044.09;;;1.30
76583;BMP280;65462;52.148;7.940;2023-03-12T08:00:26;100042.50;;;1.34
76583;BMP280;65462;52.148;7.940;2023-03-12T08:02:52;100035.72;;;1.38
76583;BMP280;65462;52.148;7.940;2023-03-12T08:05:18;100028.69;;;1.38
76583;BMP280;65462;52.148;7.940;2023-03-12T08:07:43;100028.94;;;1.37
76583;BMP280;65462;52.148;7.940;2023-03-12T08:10:09;100030.50;;;1.38
76583;BMP280;65462;52.148;7.940;2023-03-12T08:12:35;100037.28;;;1.39
76583;BMP280;65462;52.148;7.940;2023-03-12T08:15:04;100026.84;;;1.44
76583;BMP280;65462;52.148;7.940;2023-03-12T08:17:30;100020.34;;;1.41
76583;BMP280;65462;52.148;7.940;2023-03-12T08:19:55;100025.56;;;1.41
76583;BMP280;65462;52.148;7.940;2023-03-12T08:22:21;100009.72;;;1.38
76583;BMP280;65462;52.148;7.940;2023-03-12T08:24:46;100020.06;;;1.48
76583;BMP280;65462;52.148;7.940;2023-03-12T08:27:11;100019.53;;;1.51
76583;BMP280;65462;52.148;7.940;2023-03-12T08:29:37;100027.88;;;1.48
76583;BMP280;65462;52.148;7.940;2023-03-12T08:32:02;100027.84;;;1.53
76583;BMP280;65462;52.148;7.940;2023-03-12T08:34:28;100018.19;;;1.58
76583;BMP280;65462;52.148;7.940;2023-03-12T08:36:53;100020.03;;;1.58
76583;BMP280;65462;52.148;7.940;2023-03-12T08:39:18;100025.50;;;1.56
76583;BMP280;65462;52.148;7.940;2023-03-12T08:41:44;100024.16;;;1.59
76583;BMP280;65462;52.148;7.940;2023-03-12T08:44:09;100030.41;;;1.63
76583;BMP280;65462;52.148;7.940;2023-03-12T08:46:34;100029.38;;;1.64
76583;BMP280;65462;52.148;7.940;2023-03-12T08:48:59;100015.81;;;1.67
76583;BMP280;65462;52.148;7.940;2023-03-12T08:51:25;100017.34;;;1.68
76583;BMP280;65462;52.148;7.940;2023-03-12T08:53:50;100015.28;;;1.70
76583;BMP280;65462;52.148;7.940;2023-03-12T08:56:16;100017.34;;;1.73
76583;BMP280;65462;52.148;7.940;2023-03-12T08:58:41;100013.97;;;1.73
76583;BMP280;65462;52.148;7.940;2023-03-12T09:01:10;100011.34;;;1.73
76583;BMP280;65462;52.148;7.940;2023-03-12T09:03:36;100010.31;;;1.74
76583;BMP280;65462;52.148;7.940;2023-03-12T09:06:10;100018.91;;;1.74
76583;BMP280;65462;52.148;7.940;2023-03-12T09:08:39;100015.25;;;1.75
76583;BMP280;65462;52.148;7.940;2023-03-12T09:11:05;100010.31;;;1.74
76583;BMP280;65462;52.148;7.940;2023-03-12T09:13:32;100018.13;;;1.74
76583;BMP280;65462;52.148;7.940;2023-03-12T09:15:58;100022.28;;;1.75
76583;BMP280;65462;52.148;7.940;2023-03-12T09:18:24;100014.72;;;1.78
76583;BMP280;65462;52.148;7.940;2023-03-12T09:20:49;100023.59;;;1.77
76583;BMP280;65462;52.148;7.940;2023-03-12T09:23:15;100017.31;;;1.78
76583;BMP280;65462;52.148;7.940;2023-03-12T09:25:44;100012.09;;;1.78
76583;BMP280;65462;52.148;7.940;2023-03-12T09:28:10;100002.75;;;1.77
76583;BMP280;65462;52.148;7.940;2023-03-12T09:30:35;99995.19;;;1.81
76583;BMP280;65462;52.148;7.940;2023-03-12T09:33:00;99986.34;;;1.77
76583;BMP280;65462;52.148;7.940;2023-03-12T09:35:25;99979.34;;;1.77
76583;BMP280;65462;52.148;7.940;2023-03-12T09:37:51;99975.94;;;1.77
76583;BMP280;65462;52.148;7.940;2023-03-12T09:40:19;99984.00;;;1.80
76583;BMP280;65462;52.148;7.940;2023-03-12T09:42:52;99973.59;;;1.75
76583;BMP280;65462;52.148;7.940;2023-03-12T09:45:25;99964.75;;;1.76
76583;BMP280;65462;52.148;7.940;2023-03-12T09:47:53;99962.66;;;1.78
76583;BMP280;65462;52.148;7.940;2023-03-12T09:50:26;99962.38;;;1.80
76583;BMP280;65462;52.148;7.940;2023-03-12T09:53:01;99955.91;;;1.77
76583;BMP280;65462;52.148;7.940;2023-03-12T09:55:34;99953.81;;;1.79
76583;BMP280;65462;52.148;7.940;2023-03-12T09:58:01;99941.28;;;1.81
76583;BMP280;65462;52.148;7.940;2023-03-12T10:00:30;99941.81;;;1.78
76583;BMP280;65462;52.148;7.940;2023-03-12T10:03:08;99937.63;;;1.82
76583;BMP280;65462;52.148;7.940;2023-03-12T10:08:31;99957.13;;;1.85
76583;BMP280;65462;52.148;7.940;2023-03-12T10:16:31;99972.94;;;1.93
76583;BMP280;65462;52.148;7.940;2023-03-12T10:21:53;99938.03;;;1.94
76583;BMP280;65462;52.148;7.940;2023-03-12T10:24:31;99945.59;;;1.96
76583;BMP280;65462;52.148;7.940;2023-03-12T10:26:58;99934.88;;;1.97
76583;BMP280;65462;52.148;7.940;2023-03-12T10:29:29;99935.66;;;1.98
76583;BMP280;65462;52.148;7.940;2023-03-12T10:34:55;99938.78;;;2.00
76583;BMP280;65462;52.148;7.940;2023-03-12T10:37:29;99957.75;;;2.05
76583;BMP280;65462;52.148;7.940;2023-03-12T10:39:55;99962.97;;;2.05
76583;BMP280;65462;52.148;7.940;2023-03-12T10:42:26;99963.75;;;2.06
76583;BMP280;65462;52.148;7.940;2023-03-12T10:44:59;99956.19;;;2.04
76583;BMP280;65462;52.148;7.940;2023-03-12T10:47:42;99946.28;;;2.06
76583;BMP280;65462;52.148;7.940;2023-03-12T10:50:24;99966.59;;;2.09
76583;BMP280;65462;52.148;7.940;2023-03-12T10:52:52;99933.22;;;2.11
76583;BMP280;65462;52.148;7.940;2023-03-12T10:57:49;99937.38;;;2.12
76583;BMP280;65462;52.148;7.940;2023-03-12T11:00:26;99924.88;;;2.14
76583;BMP280;65462;52.148;7.940;2023-03-12T11:03:00;99926.41;;;2.15
76583;BMP280;65462;52.148;7.940;2023-03-12T11:07:54;99918.00;;;2.24
76583;BMP280;65462;52.148;7.940;2023-03-12T11:10:24;99919.56;;;2.25
76583;BMP280;65462;52.148;7.940;2023-03-12T11:13:05;99918.22;;;2.27
76583;BMP280;65462;52.148;7.940;2023-03-12T11:15:43;99935.63;;;2.32
76583;BMP280;65462;52.148;7.940;2023-03-12T11:18:28;99934.03;;;2.36
76583;BMP280;65462;52.148;7.940;2023-03-12T11:23:36;99928.00;;;2.40
76583;BMP280;65462;52.148;7.940;2023-03-12T11:26:11;99927.44;;;2.43
76583;BMP280;65462;52.148;7.940;2023-03-12T11:28:50;99919.06;;;2.46
76583;BMP280;65462;52.148;7.940;2023-03-12T11:31:22;99918.25;;;2.51
76583;BMP280;65462;52.148;7.940;2023-03-12T11:33:50;99918.25;;;2.51
76583;BMP280;65462;52.148;7.940;2023-03-12T11:36:48;99907.28;;;2.54
76583;BMP280;65462;52.148;7.940;2023-03-12T11:39:34;99899.91;;;2.61
76583;BMP280;65462;52.148;7.940;2023-03-12T11:42:15;99902.41;;;2.66
76583;BMP280;65462;52.148;7.940;2023-03-12T11:50:24;99884.53;;;2.78
76583;BMP280;65462;52.148;7.940;2023-03-12T11:58:23;99876.59;;;2.88
76583;BMP280;65462;52.148;7.940;2023-03-12T12:01:03;99884.94;;;2.90
76583;BMP280;65462;52.148;7.940;2023-03-12T12:03:58;99889.56;;;2.93
76583;BMP280;65462;52.148;7.940;2023-03-12T12:09:12;99880.31;;;3.01
76583;BMP280;65462;52.148;7.940;2023-03-12T12:12:01;99884.22;;;3.03
76583;BMP280;65462;52.148;7.940;2023-03-12T12:20:26;99867.88;;;3.16
76583;BMP280;65462;52.148;7.940;2023-03-12T12:23:04;99864.13;;;3.22
76583;BMP280;65462;52.148;7.940;2023-03-12T12:28:43;99850.41;;;3.30
76583;BMP280;65462;52.148;7.940;2023-03-12T12:31:44;99850.38;;;3.36
76583;BMP280;65462;52.148;7.940;2023-03-12T12:40:19;99839.44;;;3.47
76583;BMP280;65462;52.148;7.940;2023-03-12T12:42:56;99839.66;;;3.51
76583;BMP280;65462;52.148;7.940;2023-03-12T12:45:25;99842.47;;;3.54
76583;BMP280;65462;52.148;7.940;2023-03-12T12:48:03;99832.03;;;3.54
76583;BMP280;65462;52.148;7.940;2023-03-12T12:50:35;99837.69;;;3.61
76583;BMP280;65462;52.148;7.940;2023-03-12T12:53:22;99834.19;;;3.66
76583;BMP280;65462;52.148;7.940;2023-03-12T13:01:20;99812.34;;;3.75
76583;BMP280;65462;52.148;7.940;2023-03-12T13:03:46;99815.66;;;3.81
76583;BMP280;65462;52.148;7.940;2023-03-12T13:06:12;99807.72;;;3.86
76583;BMP280;65462;52.148;7.940;2023-03-12T13:14:10;99807.50;;;3.96
76583;BMP280;65462;52.148;7.940;2023-03-12T13:16:43;99806.47;;;3.97
76583;BMP280;65462;52.148;7.940;2023-03-12T13:21:52;99809.25;;;4.01
76583;BMP280;65462;52.148;7.940;2023-03-12T13:24:25;99807.13;;;4.03
76583;BMP280;65462;52.148;7.940;2023-03-12T13:27:30;99802.13;;;4.06
76583;BMP280;65462;52.148;7.940;2023-03-12T13:43:15;99759.97;;;4.57
76583;BMP280;65462;52.148;7.940;2023-03-12T13:45:53;99741.69;;;4.79
76583;BMP280;65462;52.148;7.940;2023-03-12T13:48:20;99764.22;;;4.89
76583;BMP280;65462;52.148;7.940;2023-03-12T13:50:57;99747.53;;;5.07
76583;BMP280;65462;52.148;7.940;2023-03-12T13:53:46;99731.47;;;5.22
76583;BMP280;65462;52.148;7.940;2023-03-12T13:56:15;99707.84;;;5.44
76583;BMP280;65462;52.148;7.940;2023-03-12T13:58:49;99697.53;;;5.56
76583;BMP280;65462;52.148;7.940;2023-03-12T14:01:19;99687.84;;;5.65
76583;BMP280;65462;52.148;7.940;2023-03-12T14:03:52;99671.72;;;5.81
76583;BMP280;65462;52.148;7.940;2023-03-12T14:06:21;99671.56;;;5.94
76583;BMP280;65462;52.148;7.940;2023-03-12T14:16:50;99665.06;;;6.35
76583;BMP280;65462;52.148;7.940;2023-03-12T14:19:19;99668.13;;;6.45
76583;BMP280;65462;52.148;7.940;2023-03-12T14:21:48;99672.16;;;6.51
76583;BMP280;65462;52.148;7.940;2023-03-12T14:24:22;99683.56;;;6.55
76583;BMP280;65462;52.148;7.940;2023-03-12T14:26:48;99672.28;;;6.63
76583;BMP280;65462;52.148;7.940;2023-03-12T14:32:11;99662.38;;;6.77
76583;BMP280;65462;52.148;7.940;2023-03-12T14:34:41;99660.63;;;6.81
76583;BMP280;65462;52.148;7.940;2023-03-12T14:37:18;99664.78;;;6.91
76583;BMP280;65462;52.148;7.940;2023-03-12T14:40:00;99661.78;;;7.01
76583;BMP280;65462;52.148;7.940;2023-03-12T14:42:33;99674.41;;;7.08
76583;BMP280;65462;52.148;7.940;2023-03-12T14:45:19;99666.38;;;7.13
76583;BMP280;65462;52.148;7.940;2023-03-12T14:47:47;99654.41;;;7.24
76583;BMP280;65462;52.148;7.940;2023-03-12T14:50:22;99645.72;;;7.32
76583;BMP280;65462;52.148;7.940;2023-03-12T14:52:47;99646.31;;;7.37
76583;BMP280;65462;52.148;7.940;2023-03-12T14:55:15;99645.34;;;7.42
76583;BMP280;65462;52.148;7.940;2023-03-12T14:57:43;99651.31;;;7.51
76583;BMP280;65462;52.148;7.940;2023-03-12T15:00:20;99648.06;;;7.54
76583;BMP280;65462;52.148;7.940;2023-03-12T15:02:46;99648.34;;;7.61
76583;BMP280;65462;52.148;7.940;2023-03-12T15:05:18;99626.00;;;7.67
76583;BMP280;65462;52.148;7.940;2023-03-12T15:07:45;99631.41;;;7.71
76583;BMP280;65462;52.148;7.940;2023-03-12T15:10:23;99629.47;;;7.80
76583;BMP280;65462;52.148;7.940;2023-03-12T15:12:50;99627.84;;;7.87
76583;BMP280;65462;52.148;7.940;2023-03-12T15:15:54;99627.75;;;7.96
76583;BMP280;65462;52.148;7.940;2023-03-12T15:18:25;99630.97;;;8.01
76583;BMP280;65462;52.148;7.940;2023-03-12T15:20:51;99641.72;;;8.08
76583;BMP280;65462;52.148;7.940;2023-03-12T15:23:20;99642.31;;;8.14
76583;BMP280;65462;52.148;7.940;2023-03-12T15:25:46;99627.97;;;8.23
76583;BMP280;65462;52.148;7.940;2023-03-12T15:30:40;99633.16;;;8.32
76583;BMP280;65462;52.148;7.940;2023-03-12T15:33:10;99638.97;;;8.38
76583;BMP280;65462;52.148;7.940;2023-03-12T15:35:38;99627.78;;;8.41
76583;BMP280;65462;52.148;7.940;2023-03-12T15:38:04;99640.00;;;8.45
76583;BMP280;65462;52.148;7.940;2023-03-12T15:40:30;99630.31;;;8.49
76583;BMP280;65462;52.148;7.940;2023-03-12T15:42:57;99629.34;;;8.54
76583;BMP280;65462;52.148;7.940;2023-03-12T15:45:34;99638.25;;;8.61
76583;BMP280;65462;52.148;7.940;2023-03-12T15:48:00;99635.81;;;8.68
76583;BMP280;65462;52.148;7.940;2023-03-12T15:50:30;99629.16;;;8.71
76583;BMP280;65462;52.148;7.940;2023-03-12T15:53:05;99633.44;;;8.75
76583;BMP280;65462;52.148;7.940;2023-03-12T15:55:33;99631.56;;;8.76
76583;BMP280;65462;52.148;7.940;2023-03-12T15:57:59;99630.22;;;8.82